^^
Meteo Knjazevac Station Historical Data
Daily Summary for June 5, 2021 Units:  English    Metric   Both
Daily Weekly Monthly Yearly Custom
  High: Low: Average:
Temperature: 54.3 °F 47.8 °F 50 °F
Dew Point: 51.4 °F 46.8 °F 48.5 °F
Humidity: 98% 90% 95%
Wind Speed: 2mph 0mph 1.2mph
Wind Gust: 5mph - -
Wind- - WNW
Pressure: 30.29 in 30.27 in -
Precipitation: 0.00 in    
Historical Graphs
 
 
Tabular Data for June 5, 2021
Time Temperature Dew Point Pressure Wind Wind Speed Wind Gust Humidity Rainfall Rate (Hourly) solar Conditions
00:00 54.3 °F 51.4 °F 30.29 in WSW 1 mph 4 mph 90% 0.00 in 0 W/m2
00:10 53.8 °F 50.9 °F 30.29 in West 1 mph 4 mph 90% 0.00 in 0 W/m2
00:20 53.4 °F 50.9 °F 30.29 in West 1 mph 4 mph 91% 0.00 in 0 W/m2
00:30 53.4 °F 50.9 °F 30.29 in Calm   2 mph 91% 0.00 in 0 W/m2
00:40 53.2 °F 50.7 °F 30.28 in Calm   2 mph 91% 0.00 in 0 W/m2
00:50 53.1 °F 51.1 °F 30.28 in Calm   2 mph 93% 0.00 in 0 W/m2
01:00 52.7 °F 50.7 °F 30.28 in Calm   2 mph 93% 0.00 in 0 W/m2
01:10 52.2 °F 49.6 °F 30.28 in WSW 2 mph 3 mph 91% 0.00 in 0 W/m2
01:20 51.8 °F 49.8 °F 30.28 in NW 1 mph 3 mph 93% 0.00 in 0 W/m2
01:30 51.4 °F 49.5 °F 30.28 in Calm   3 mph 93% 0.00 in 0 W/m2
01:40 51.1 °F 49.1 °F 30.28 in West 1 mph 2 mph 93% 0.00 in 0 W/m2
01:50 50.7 °F 49.1 °F 30.28 in NW 1 mph 2 mph 94% 0.00 in 0 W/m2
02:00 50.5 °F 48.9 °F 30.28 in Calm   3 mph 94% 0.00 in 0 W/m2
02:10 50.2 °F 48.5 °F 30.28 in West 2 mph 2 mph 94% 0.00 in 0 W/m2
02:20 50 °F 48.3 °F 30.28 in WSW 1 mph 2 mph 94% 0.00 in 0 W/m2
02:30 49.5 °F 47.8 °F 30.28 in Calm   2 mph 94% 0.00 in 0 W/m2
02:40 49.5 °F 48.1 °F 30.28 in West 2 mph 3 mph 95% 0.00 in 0 W/m2
02:50 49.4 °F 48.1 °F 30.28 in NW 2 mph 3 mph 95% 0.00 in 0 W/m2
03:00 49.3 °F 47.9 °F 30.28 in West 2 mph 3 mph 95% 0.00 in 0 W/m2
03:10 49.1 °F 47.7 °F 30.28 in WNW 2 mph 4 mph 95% 0.00 in 0 W/m2
03:20 49.3 °F 48.2 °F 30.28 in WNW 1 mph 3 mph 96% 0.00 in 0 W/m2
03:30 49.1 °F 47.7 °F 30.28 in NW 2 mph 3 mph 95% 0.00 in 0 W/m2
03:40 48.9 °F 47.6 °F 30.28 in NW 1 mph 3 mph 95% 0.00 in 0 W/m2
03:50 48.7 °F 47.4 °F 30.28 in NW 2 mph 2 mph 95% 0.00 in 0 W/m2
04:00 48.6 °F 47.2 °F 30.28 in WNW 2 mph 3 mph 95% 0.00 in 0 W/m2
04:10 48.6 °F 47.5 °F 30.28 in WNW 2 mph 3 mph 96% 0.00 in 0 W/m2
04:20 48.4 °F 47.3 °F 30.28 in West 2 mph 4 mph 96% 0.00 in 0 W/m2
04:30 48.4 °F 47.3 °F 30.28 in Calm   3 mph 96% 0.00 in 0 W/m2
04:40 48.4 °F 47.8 °F 30.28 in West 2 mph 3 mph 98% 0.00 in 0 W/m2
04:50 48.2 °F 47.1 °F 30.28 in WNW 2 mph 3 mph 96% 0.00 in 3 W/m2
05:00 48.4 °F 47.8 °F 30.28 in West 2 mph 3 mph 98% 0.00 in 7 W/m2
05:10 48 °F 47.5 °F 30.28 in West 2 mph 4 mph 98% 0.00 in 15 W/m2
05:20 48.2 °F 47.7 °F 30.27 in West 1 mph 3 mph 98% 0.00 in 23 W/m2
05:30 47.8 °F 46.8 °F 30.27 in West 2 mph 5 mph 96% 0.00 in 31 W/m2
05:40 47.8 °F 47.3 °F 30.27 in WNW 1 mph 5 mph 98% 0.00 in 38 W/m2
05:50 47.8 °F 47.3 °F 30.27 in West 2 mph 3 mph 98% 0.00 in 45 W/m2
06:00 47.8 °F 47.3 °F 30.27 in NW 1 mph 4 mph 98% 0.00 in 51 W/m2
Knjazevac, Serbia
Compliments of Weather Underground - 2 mb